sensor_id;sensor_type;location;lat;lon;timestamp;P1;durP1;ratioP1;P2;durP2;ratioP2
41885;SDS011;27567;43.084;25.616;2022-11-20T00:02:02;15.13;;;3.75;;
41885;SDS011;27567;43.084;25.616;2022-11-20T00:04:46;13.63;;;3.22;;
41885;SDS011;27567;43.084;25.616;2022-11-20T00:07:30;14.32;;;3.92;;
41885;SDS011;27567;43.084;25.616;2022-11-20T00:10:14;11.80;;;3.75;;
41885;SDS011;27567;43.084;25.616;2022-11-20T00:12:58;10.02;;;2.80;;
41885;SDS011;27567;43.084;25.616;2022-11-20T00:15:42;14.63;;;3.28;;
41885;SDS011;27567;43.084;25.616;2022-11-20T00:18:26;15.40;;;3.60;;
41885;SDS011;27567;43.084;25.616;2022-11-20T00:21:12;9.02;;;3.00;;
41885;SDS011;27567;43.084;25.616;2022-11-20T00:24:01;14.80;;;3.08;;
41885;SDS011;27567;43.084;25.616;2022-11-20T00:26:45;9.23;;;3.00;;
41885;SDS011;27567;43.084;25.616;2022-11-20T00:29:29;10.73;;;3.17;;
41885;SDS011;27567;43.084;25.616;2022-11-20T00:32:13;15.77;;;2.78;;
41885;SDS011;27567;43.084;25.616;2022-11-20T00:34:57;12.85;;;3.90;;
41885;SDS011;27567;43.084;25.616;2022-11-20T00:37:41;9.93;;;2.90;;
41885;SDS011;27567;43.084;25.616;2022-11-20T00:40:25;6.45;;;2.35;;
41885;SDS011;27567;43.084;25.616;2022-11-20T00:43:09;10.70;;;3.45;;
41885;SDS011;27567;43.084;25.616;2022-11-20T00:45:58;13.13;;;3.05;;
41885;SDS011;27567;43.084;25.616;2022-11-20T00:48:47;12.63;;;2.65;;
41885;SDS011;27567;43.084;25.616;2022-11-20T00:51:32;13.10;;;3.25;;
41885;SDS011;27567;43.084;25.616;2022-11-20T00:54:16;14.80;;;3.05;;
41885;SDS011;27567;43.084;25.616;2022-11-20T00:57:00;10.82;;;3.13;;
41885;SDS011;27567;43.084;25.616;2022-11-20T00:59:44;9.52;;;2.40;;
41885;SDS011;27567;43.084;25.616;2022-11-20T01:02:28;11.93;;;2.60;;
41885;SDS011;27567;43.084;25.616;2022-11-20T01:05:12;10.75;;;3.20;;
41885;SDS011;27567;43.084;25.616;2022-11-20T01:07:56;9.48;;;2.53;;
41885;SDS011;27567;43.084;25.616;2022-11-20T01:10:40;9.60;;;2.72;;
41885;SDS011;27567;43.084;25.616;2022-11-20T01:13:24;16.58;;;2.80;;
41885;SDS011;27567;43.084;25.616;2022-11-20T01:19:16;13.98;;;3.38;;
41885;SDS011;27567;43.084;25.616;2022-11-20T01:22:02;18.80;;;3.28;;
41885;SDS011;27567;43.084;25.616;2022-11-20T01:24:46;14.60;;;2.97;;
41885;SDS011;27567;43.084;25.616;2022-11-20T01:27:30;16.02;;;2.70;;
41885;SDS011;27567;43.084;25.616;2022-11-20T01:30:14;16.58;;;3.08;;
41885;SDS011;27567;43.084;25.616;2022-11-20T01:32:59;10.52;;;3.05;;
41885;SDS011;27567;43.084;25.616;2022-11-20T01:35:43;10.52;;;2.80;;
41885;SDS011;27567;43.084;25.616;2022-11-20T01:38:26;11.23;;;3.28;;
41885;SDS011;27567;43.084;25.616;2022-11-20T01:41:10;10.52;;;3.53;;
41885;SDS011;27567;43.084;25.616;2022-11-20T01:44:17;14.95;;;2.90;;
41885;SDS011;27567;43.084;25.616;2022-11-20T01:47:04;11.57;;;3.60;;
41885;SDS011;27567;43.084;25.616;2022-11-20T01:53:06;16.67;;;3.70;;
41885;SDS011;27567;43.084;25.616;2022-11-20T01:55:54;14.32;;;3.55;;
41885;SDS011;27567;43.084;25.616;2022-11-20T01:58:42;8.23;;;2.50;;
41885;SDS011;27567;43.084;25.616;2022-11-20T02:01:31;15.38;;;3.47;;
41885;SDS011;27567;43.084;25.616;2022-11-20T02:04:15;10.40;;;2.72;;
41885;SDS011;27567;43.084;25.616;2022-11-20T02:07:00;11.48;;;2.65;;
41885;SDS011;27567;43.084;25.616;2022-11-20T02:09:45;11.90;;;3.17;;
41885;SDS011;27567;43.084;25.616;2022-11-20T02:12:29;14.68;;;3.35;;
41885;SDS011;27567;43.084;25.616;2022-11-20T02:15:33;14.02;;;3.30;;
41885;SDS011;27567;43.084;25.616;2022-11-20T02:18:18;13.70;;;3.25;;
41885;SDS011;27567;43.084;25.616;2022-11-20T02:21:06;11.77;;;2.90;;
41885;SDS011;27567;43.084;25.616;2022-11-20T02:30:05;12.80;;;3.13;;
41885;SDS011;27567;43.084;25.616;2022-11-20T02:32:54;10.05;;;2.50;;
41885;SDS011;27567;43.084;25.616;2022-11-20T02:35:39;13.77;;;2.90;;
41885;SDS011;27567;43.084;25.616;2022-11-20T02:38:28;9.52;;;2.85;;
41885;SDS011;27567;43.084;25.616;2022-11-20T02:41:12;11.23;;;2.55;;
41885;SDS011;27567;43.084;25.616;2022-11-20T02:43:56;9.93;;;2.67;;
41885;SDS011;27567;43.084;25.616;2022-11-20T02:46:40;14.93;;;3.40;;
41885;SDS011;27567;43.084;25.616;2022-11-20T02:49:25;9.40;;;2.83;;
41885;SDS011;27567;43.084;25.616;2022-11-20T02:52:09;13.43;;;3.03;;
41885;SDS011;27567;43.084;25.616;2022-11-20T02:54:52;12.90;;;3.30;;
41885;SDS011;27567;43.084;25.616;2022-11-20T02:57:36;10.98;;;2.63;;
41885;SDS011;27567;43.084;25.616;2022-11-20T03:00:20;11.10;;;2.83;;
41885;SDS011;27567;43.084;25.616;2022-11-20T03:03:04;12.82;;;2.80;;
41885;SDS011;27567;43.084;25.616;2022-11-20T03:05:48;15.95;;;2.85;;
41885;SDS011;27567;43.084;25.616;2022-11-20T03:08:32;11.45;;;2.67;;
41885;SDS011;27567;43.084;25.616;2022-11-20T03:11:17;12.20;;;2.45;;
41885;SDS011;27567;43.084;25.616;2022-11-20T03:14:02;9.43;;;2.22;;
41885;SDS011;27567;43.084;25.616;2022-11-20T03:16:47;8.48;;;2.20;;
41885;SDS011;27567;43.084;25.616;2022-11-20T03:19:31;11.80;;;3.25;;
41885;SDS011;27567;43.084;25.616;2022-11-20T03:22:15;6.90;;;2.10;;
41885;SDS011;27567;43.084;25.616;2022-11-20T03:24:59;8.48;;;2.72;;
41885;SDS011;27567;43.084;25.616;2022-11-20T03:27:43;9.93;;;2.20;;
41885;SDS011;27567;43.084;25.616;2022-11-20T03:30:27;10.63;;;2.28;;
41885;SDS011;27567;43.084;25.616;2022-11-20T03:33:11;11.38;;;2.40;;
41885;SDS011;27567;43.084;25.616;2022-11-20T03:35:55;16.40;;;2.50;;
41885;SDS011;27567;43.084;25.616;2022-11-20T03:38:45;20.48;;;3.03;;
41885;SDS011;27567;43.084;25.616;2022-11-20T03:41:30;10.57;;;2.00;;
41885;SDS011;27567;43.084;25.616;2022-11-20T03:44:15;11.90;;;3.30;;
41885;SDS011;27567;43.084;25.616;2022-11-20T03:46:59;13.90;;;2.40;;
41885;SDS011;27567;43.084;25.616;2022-11-20T03:49:43;8.18;;;1.83;;
41885;SDS011;27567;43.084;25.616;2022-11-20T03:52:26;7.55;;;1.85;;
41885;SDS011;27567;43.084;25.616;2022-11-20T03:55:10;15.55;;;3.22;;
41885;SDS011;27567;43.084;25.616;2022-11-20T03:57:54;12.00;;;2.13;;
41885;SDS011;27567;43.084;25.616;2022-11-20T04:00:38;10.80;;;2.22;;
41885;SDS011;27567;43.084;25.616;2022-11-20T04:03:22;15.52;;;2.78;;
41885;SDS011;27567;43.084;25.616;2022-11-20T04:06:07;14.55;;;2.80;;
41885;SDS011;27567;43.084;25.616;2022-11-20T04:08:54;11.57;;;2.45;;
41885;SDS011;27567;43.084;25.616;2022-11-20T04:11:39;6.70;;;2.08;;
41885;SDS011;27567;43.084;25.616;2022-11-20T04:14:24;9.38;;;2.83;;
41885;SDS011;27567;43.084;25.616;2022-11-20T04:17:08;13.25;;;2.63;;
41885;SDS011;27567;43.084;25.616;2022-11-20T04:19:52;9.88;;;1.90;;
41885;SDS011;27567;43.084;25.616;2022-11-20T04:22:36;10.45;;;2.08;;
41885;SDS011;27567;43.084;25.616;2022-11-20T04:25:20;8.32;;;2.20;;
41885;SDS011;27567;43.084;25.616;2022-11-20T04:28:03;8.77;;;1.92;;
41885;SDS011;27567;43.084;25.616;2022-11-20T04:30:47;17.95;;;4.15;;
41885;SDS011;27567;43.084;25.616;2022-11-20T04:33:32;4.55;;;1.80;;
41885;SDS011;27567;43.084;25.616;2022-11-20T04:36:17;10.85;;;1.90;;
41885;SDS011;27567;43.084;25.616;2022-11-20T04:39:04;9.50;;;2.17;;
41885;SDS011;27567;43.084;25.616;2022-11-20T04:41:49;8.70;;;2.08;;
41885;SDS011;27567;43.084;25.616;2022-11-20T04:44:53;10.15;;;2.58;;
41885;SDS011;27567;43.084;25.616;2022-11-20T04:47:38;11.73;;;1.90;;
41885;SDS011;27567;43.084;25.616;2022-11-20T04:50:22;10.23;;;2.15;;
41885;SDS011;27567;43.084;25.616;2022-11-20T04:53:06;9.82;;;1.95;;
41885;SDS011;27567;43.084;25.616;2022-11-20T04:55:49;9.95;;;2.30;;
41885;SDS011;27567;43.084;25.616;2022-11-20T04:58:34;6.70;;;2.10;;
41885;SDS011;27567;43.084;25.616;2022-11-20T05:01:19;8.02;;;2.63;;
41885;SDS011;27567;43.084;25.616;2022-11-20T05:04:05;22.67;;;2.58;;
41885;SDS011;27567;43.084;25.616;2022-11-20T05:06:49;7.25;;;2.42;;
41885;SDS011;27567;43.084;25.616;2022-11-20T05:09:34;5.63;;;1.98;;
41885;SDS011;27567;43.084;25.616;2022-11-20T05:12:18;8.32;;;1.90;;
41885;SDS011;27567;43.084;25.616;2022-11-20T05:15:02;6.07;;;2.30;;
41885;SDS011;27567;43.084;25.616;2022-11-20T05:17:50;8.48;;;2.05;;
41885;SDS011;27567;43.084;25.616;2022-11-20T05:20:35;6.15;;;2.00;;
41885;SDS011;27567;43.084;25.616;2022-11-20T05:23:20;11.90;;;3.97;;
41885;SDS011;27567;43.084;25.616;2022-11-20T05:26:04;7.28;;;2.45;;
41885;SDS011;27567;43.084;25.616;2022-11-20T05:28:51;11.93;;;2.35;;
41885;SDS011;27567;43.084;25.616;2022-11-20T05:31:35;7.00;;;2.63;;
41885;SDS011;27567;43.084;25.616;2022-11-20T05:34:20;6.82;;;2.45;;
41885;SDS011;27567;43.084;25.616;2022-11-20T05:37:04;5.15;;;2.05;;
41885;SDS011;27567;43.084;25.616;2022-11-20T05:39:48;12.75;;;2.20;;
41885;SDS011;27567;43.084;25.616;2022-11-20T05:42:33;13.65;;;3.25;;
41885;SDS011;27567;43.084;25.616;2022-11-20T05:45:17;9.13;;;3.80;;
41885;SDS011;27567;43.084;25.616;2022-11-20T05:48:01;9.93;;;1.95;;
41885;SDS011;27567;43.084;25.616;2022-11-20T05:50:45;11.40;;;2.20;;
41885;SDS011;27567;43.084;25.616;2022-11-20T05:53:29;7.95;;;2.40;;
41885;SDS011;27567;43.084;25.616;2022-11-20T05:56:14;16.60;;;8.43;;
41885;SDS011;27567;43.084;25.616;2022-11-20T05:59:00;9.75;;;3.35;;
41885;SDS011;27567;43.084;25.616;2022-11-20T06:01:45;15.20;;;3.67;;
41885;SDS011;27567;43.084;25.616;2022-11-20T06:04:29;16.77;;;8.85;;
41885;SDS011;27567;43.084;25.616;2022-11-20T06:07:14;21.42;;;11.65;;
41885;SDS011;27567;43.084;25.616;2022-11-20T06:09:58;18.02;;;11.70;;
41885;SDS011;27567;43.084;25.616;2022-11-20T06:12:41;12.52;;;6.32;;
41885;SDS011;27567;43.084;25.616;2022-11-20T06:15:26;11.02;;;5.72;;
41885;SDS011;27567;43.084;25.616;2022-11-20T06:18:09;14.70;;;5.68;;
41885;SDS011;27567;43.084;25.616;2022-11-20T06:21:14;20.98;;;6.32;;
41885;SDS011;27567;43.084;25.616;2022-11-20T06:24:00;11.35;;;5.68;;
41885;SDS011;27567;43.084;25.616;2022-11-20T06:26:44;10.88;;;4.13;;
41885;SDS011;27567;43.084;25.616;2022-11-20T06:29:29;11.88;;;4.30;;
41885;SDS011;27567;43.084;25.616;2022-11-20T06:32:13;11.93;;;3.50;;
41885;SDS011;27567;43.084;25.616;2022-11-20T06:34:57;8.75;;;4.15;;
41885;SDS011;27567;43.084;25.616;2022-11-20T06:37:41;12.00;;;4.68;;
41885;SDS011;27567;43.084;25.616;2022-11-20T06:40:25;6.82;;;4.80;;
41885;SDS011;27567;43.084;25.616;2022-11-20T06:43:10;9.30;;;5.05;;
41885;SDS011;27567;43.084;25.616;2022-11-20T06:45:54;8.40;;;4.78;;
41885;SDS011;27567;43.084;25.616;2022-11-20T06:48:40;11.35;;;5.82;;
41885;SDS011;27567;43.084;25.616;2022-11-20T06:51:24;11.18;;;7.15;;
41885;SDS011;27567;43.084;25.616;2022-11-20T06:54:08;11.98;;;7.93;;
41885;SDS011;27567;43.084;25.616;2022-11-20T06:56:52;12.25;;;7.18;;
41885;SDS011;27567;43.084;25.616;2022-11-20T06:59:36;16.90;;;11.32;;
41885;SDS011;27567;43.084;25.616;2022-11-20T07:02:20;21.02;;;12.32;;
41885;SDS011;27567;43.084;25.616;2022-11-20T07:05:04;20.77;;;13.30;;
41885;SDS011;27567;43.084;25.616;2022-11-20T07:07:48;27.15;;;15.38;;
41885;SDS011;27567;43.084;25.616;2022-11-20T07:10:32;26.23;;;15.30;;
41885;SDS011;27567;43.084;25.616;2022-11-20T07:13:16;28.98;;;16.05;;
41885;SDS011;27567;43.084;25.616;2022-11-20T07:16:02;31.23;;;17.05;;
41885;SDS011;27567;43.084;25.616;2022-11-20T07:18:47;29.83;;;16.95;;
41885;SDS011;27567;43.084;25.616;2022-11-20T07:21:31;32.38;;;17.98;;
41885;SDS011;27567;43.084;25.616;2022-11-20T07:24:15;40.13;;;19.58;;
41885;SDS011;27567;43.084;25.616;2022-11-20T07:27:00;40.17;;;19.15;;
41885;SDS011;27567;43.084;25.616;2022-11-20T07:29:44;40.28;;;19.77;;
41885;SDS011;27567;43.084;25.616;2022-11-20T07:32:28;43.45;;;20.30;;
41885;SDS011;27567;43.084;25.616;2022-11-20T07:35:12;63.58;;;20.70;;
41885;SDS011;27567;43.084;25.616;2022-11-20T07:37:56;58.72;;;21.60;;
41885;SDS011;27567;43.084;25.616;2022-11-20T07:40:40;61.40;;;18.63;;
41885;SDS011;27567;43.084;25.616;2022-11-20T07:43:24;74.32;;;17.63;;
41885;SDS011;27567;43.084;25.616;2022-11-20T07:46:09;128.45;;;20.15;;
41885;SDS011;27567;43.084;25.616;2022-11-20T07:48:53;110.60;;;23.40;;
41885;SDS011;27567;43.084;25.616;2022-11-20T07:51:37;92.88;;;22.30;;
41885;SDS011;27567;43.084;25.616;2022-11-20T07:54:21;156.48;;;22.40;;
41885;SDS011;27567;43.084;25.616;2022-11-20T07:57:06;63.28;;;22.30;;
41885;SDS011;27567;43.084;25.616;2022-11-20T07:59:50;78.15;;;22.83;;
41885;SDS011;27567;43.084;25.616;2022-11-20T08:02:34;146.55;;;21.88;;
41885;SDS011;27567;43.084;25.616;2022-11-20T08:05:20;52.13;;;22.42;;
41885;SDS011;27567;43.084;25.616;2022-11-20T08:08:04;97.97;;;21.67;;
41885;SDS011;27567;43.084;25.616;2022-11-20T08:10:48;143.07;;;22.75;;
41885;SDS011;27567;43.084;25.616;2022-11-20T08:13:32;203.82;;;25.35;;
41885;SDS011;27567;43.084;25.616;2022-11-20T08:16:35;86.38;;;20.50;;
41885;SDS011;27567;43.084;25.616;2022-11-20T08:19:19;59.40;;;20.55;;
41885;SDS011;27567;43.084;25.616;2022-11-20T08:22:03;67.65;;;19.92;;
41885;SDS011;27567;43.084;25.616;2022-11-20T08:24:47;57.17;;;23.05;;
41885;SDS011;27567;43.084;25.616;2022-11-20T08:27:32;98.43;;;23.05;;
41885;SDS011;27567;43.084;25.616;2022-11-20T08:30:16;81.53;;;23.52;;
41885;SDS011;27567;43.084;25.616;2022-11-20T08:33:02;436.83;;;35.25;;
41885;SDS011;27567;43.084;25.616;2022-11-20T08:35:48;333.42;;;30.23;;
41885;SDS011;27567;43.084;25.616;2022-11-20T08:38:32;196.77;;;25.02;;
41885;SDS011;27567;43.084;25.616;2022-11-20T08:41:16;201.82;;;27.27;;
41885;SDS011;27567;43.084;25.616;2022-11-20T08:44:07;67.18;;;22.73;;
41885;SDS011;27567;43.084;25.616;2022-11-20T08:46:52;144.68;;;24.98;;
41885;SDS011;27567;43.084;25.616;2022-11-20T08:49:36;273.27;;;36.80;;
41885;SDS011;27567;43.084;25.616;2022-11-20T08:52:20;189.15;;;56.40;;
41885;SDS011;27567;43.084;25.616;2022-11-20T08:55:04;1053.47;;;116.00;;
41885;SDS011;27567;43.084;25.616;2022-11-20T08:57:49;345.98;;;80.07;;
41885;SDS011;27567;43.084;25.616;2022-11-20T09:00:33;230.63;;;44.83;;
41885;SDS011;27567;43.084;25.616;2022-11-20T09:03:17;69.28;;;25.58;;
41885;SDS011;27567;43.084;25.616;2022-11-20T09:06:02;135.27;;;23.33;;
41885;SDS011;27567;43.084;25.616;2022-11-20T09:08:54;77.90;;;22.65;;
41885;SDS011;27567;43.084;25.616;2022-11-20T09:11:40;144.10;;;22.80;;
41885;SDS011;27567;43.084;25.616;2022-11-20T09:14:24;145.23;;;23.85;;
41885;SDS011;27567;43.084;25.616;2022-11-20T09:17:12;145.52;;;24.42;;
41885;SDS011;27567;43.084;25.616;2022-11-20T09:19:58;66.55;;;21.08;;
41885;SDS011;27567;43.084;25.616;2022-11-20T09:22:43;58.95;;;21.05;;
41885;SDS011;27567;43.084;25.616;2022-11-20T09:25:27;45.05;;;21.40;;
41885;SDS011;27567;43.084;25.616;2022-11-20T09:28:11;41.10;;;21.27;;
41885;SDS011;27567;43.084;25.616;2022-11-20T09:30:55;41.22;;;21.02;;
41885;SDS011;27567;43.084;25.616;2022-11-20T09:33:39;37.08;;;20.10;;
41885;SDS011;27567;43.084;25.616;2022-11-20T09:36:23;40.75;;;20.05;;
41885;SDS011;27567;43.084;25.616;2022-11-20T09:39:07;54.45;;;19.73;;
41885;SDS011;27567;43.084;25.616;2022-11-20T09:44:58;44.20;;;21.58;;
41885;SDS011;27567;43.084;25.616;2022-11-20T09:54:21;37.05;;;20.23;;
41885;SDS011;27567;43.084;25.616;2022-11-20T09:57:14;37.22;;;20.75;;
41885;SDS011;27567;43.084;25.616;2022-11-20T10:00:05;41.35;;;19.67;;
41885;SDS011;27567;43.084;25.616;2022-11-20T10:06:11;39.60;;;19.70;;
41885;SDS011;27567;43.084;25.616;2022-11-20T10:18:42;33.00;;;16.73;;
41885;SDS011;27567;43.084;25.616;2022-11-20T10:24:50;33.63;;;15.95;;
41885;SDS011;27567;43.084;25.616;2022-11-20T10:30:57;26.38;;;14.57;;
41885;SDS011;27567;43.084;25.616;2022-11-20T10:33:46;26.90;;;15.55;;
41885;SDS011;27567;43.084;25.616;2022-11-20T10:36:44;23.60;;;13.80;;
41885;SDS011;27567;43.084;25.616;2022-11-20T10:39:41;24.52;;;15.18;;
41885;SDS011;27567;43.084;25.616;2022-11-20T10:42:35;30.65;;;17.58;;
41885;SDS011;27567;43.084;25.616;2022-11-20T10:48:15;25.55;;;15.77;;
41885;SDS011;27567;43.084;25.616;2022-11-20T10:54:14;27.08;;;15.60;;
41885;SDS011;27567;43.084;25.616;2022-11-20T10:57:05;28.58;;;17.42;;
41885;SDS011;27567;43.084;25.616;2022-11-20T11:02:53;31.02;;;17.70;;
41885;SDS011;27567;43.084;25.616;2022-11-20T11:05:39;28.10;;;17.17;;
41885;SDS011;27567;43.084;25.616;2022-11-20T11:08:32;29.50;;;16.25;;
41885;SDS011;27567;43.084;25.616;2022-11-20T11:11:25;28.92;;;17.35;;
41885;SDS011;27567;43.084;25.616;2022-11-20T11:14:13;31.35;;;16.83;;
41885;SDS011;27567;43.084;25.616;2022-11-20T11:16:58;32.35;;;16.13;;
41885;SDS011;27567;43.084;25.616;2022-11-20T11:19:42;28.65;;;16.05;;
41885;SDS011;27567;43.084;25.616;2022-11-20T11:22:26;27.25;;;15.60;;
41885;SDS011;27567;43.084;25.616;2022-11-20T11:25:19;33.30;;;18.60;;
41885;SDS011;27567;43.084;25.616;2022-11-20T11:33:47;19.85;;;12.30;;
41885;SDS011;27567;43.084;25.616;2022-11-20T11:36:32;22.85;;;13.40;;
41885;SDS011;27567;43.084;25.616;2022-11-20T11:39:18;21.48;;;12.70;;
41885;SDS011;27567;43.084;25.616;2022-11-20T11:42:04;23.30;;;13.23;;
41885;SDS011;27567;43.084;25.616;2022-11-20T11:44:49;23.83;;;13.25;;
41885;SDS011;27567;43.084;25.616;2022-11-20T11:47:48;21.43;;;13.07;;
41885;SDS011;27567;43.084;25.616;2022-11-20T11:50:36;23.90;;;14.52;;
41885;SDS011;27567;43.084;25.616;2022-11-20T11:53:21;30.33;;;16.52;;
41885;SDS011;27567;43.084;25.616;2022-11-20T11:56:10;27.05;;;15.50;;
41885;SDS011;27567;43.084;25.616;2022-11-20T11:58:57;28.13;;;14.98;;
41885;SDS011;27567;43.084;25.616;2022-11-20T12:01:55;29.15;;;15.65;;
41885;SDS011;27567;43.084;25.616;2022-11-20T12:04:49;30.48;;;16.80;;
41885;SDS011;27567;43.084;25.616;2022-11-20T12:08:23;29.45;;;14.40;;
41885;SDS011;27567;43.084;25.616;2022-11-20T12:11:15;25.25;;;14.73;;
41885;SDS011;27567;43.084;25.616;2022-11-20T12:14:21;32.95;;;18.65;;
41885;SDS011;27567;43.084;25.616;2022-11-20T12:17:17;41.78;;;20.88;;
41885;SDS011;27567;43.084;25.616;2022-11-20T12:20:04;42.15;;;22.92;;
41885;SDS011;27567;43.084;25.616;2022-11-20T12:25:46;35.43;;;17.67;;
41885;SDS011;27567;43.084;25.616;2022-11-20T12:32:01;32.33;;;18.70;;
41885;SDS011;27567;43.084;25.616;2022-11-20T12:35:10;34.28;;;18.95;;
41885;SDS011;27567;43.084;25.616;2022-11-20T12:45:02;38.55;;;21.30;;
41885;SDS011;27567;43.084;25.616;2022-11-20T12:51:30;37.60;;;20.27;;
41885;SDS011;27567;43.084;25.616;2022-11-20T12:54:44;40.78;;;21.10;;
41885;SDS011;27567;43.084;25.616;2022-11-20T13:03:34;45.88;;;22.25;;
41885;SDS011;27567;43.084;25.616;2022-11-20T13:06:26;42.95;;;22.98;;
41885;SDS011;27567;43.084;25.616;2022-11-20T13:09:12;41.03;;;21.83;;
41885;SDS011;27567;43.084;25.616;2022-11-20T13:18:25;48.03;;;22.88;;
41885;SDS011;27567;43.084;25.616;2022-11-20T13:21:17;40.97;;;22.15;;
41885;SDS011;27567;43.084;25.616;2022-11-20T13:30:11;43.00;;;22.45;;
41885;SDS011;27567;43.084;25.616;2022-11-20T13:33:20;41.10;;;22.60;;
41885;SDS011;27567;43.084;25.616;2022-11-20T13:36:21;40.38;;;23.27;;
41885;SDS011;27567;43.084;25.616;2022-11-20T13:39:09;42.60;;;24.80;;
41885;SDS011;27567;43.084;25.616;2022-11-20T13:41:57;41.60;;;22.58;;
41885;SDS011;27567;43.084;25.616;2022-11-20T13:44:48;44.92;;;25.67;;
41885;SDS011;27567;43.084;25.616;2022-11-20T13:47:36;44.10;;;23.80;;
41885;SDS011;27567;43.084;25.616;2022-11-20T13:50:23;50.40;;;25.23;;
41885;SDS011;27567;43.084;25.616;2022-11-20T13:54:39;50.63;;;27.17;;
41885;SDS011;27567;43.084;25.616;2022-11-20T14:00:15;49.80;;;26.25;;
41885;SDS011;27567;43.084;25.616;2022-11-20T14:05:57;65.13;;;32.10;;
41885;SDS011;27567;43.084;25.616;2022-11-20T14:08:47;64.57;;;31.58;;
41885;SDS011;27567;43.084;25.616;2022-11-20T14:11:32;68.90;;;33.70;;
41885;SDS011;27567;43.084;25.616;2022-11-20T14:14:17;79.93;;;35.08;;
41885;SDS011;27567;43.084;25.616;2022-11-20T14:17:08;54.95;;;29.70;;
41885;SDS011;27567;43.084;25.616;2022-11-20T14:20:04;59.65;;;29.63;;
41885;SDS011;27567;43.084;25.616;2022-11-20T14:22:56;57.55;;;30.45;;
41885;SDS011;27567;43.084;25.616;2022-11-20T14:25:43;56.35;;;31.20;;
41885;SDS011;27567;43.084;25.616;2022-11-20T14:28:29;56.88;;;30.42;;
41885;SDS011;27567;43.084;25.616;2022-11-20T14:31:18;67.85;;;32.05;;
41885;SDS011;27567;43.084;25.616;2022-11-20T14:34:18;69.00;;;31.23;;
41885;SDS011;27567;43.084;25.616;2022-11-20T14:37:05;69.03;;;31.40;;
41885;SDS011;27567;43.084;25.616;2022-11-20T14:39:54;65.38;;;28.83;;
41885;SDS011;27567;43.084;25.616;2022-11-20T14:42:43;37.70;;;17.63;;
41885;SDS011;27567;43.084;25.616;2022-11-20T14:45:27;39.28;;;17.17;;
41885;SDS011;27567;43.084;25.616;2022-11-20T14:48:11;35.63;;;17.33;;
41885;SDS011;27567;43.084;25.616;2022-11-20T14:50:56;27.98;;;14.15;;
41885;SDS011;27567;43.084;25.616;2022-11-20T14:53:41;22.20;;;9.43;;
41885;SDS011;27567;43.084;25.616;2022-11-20T14:56:25;22.25;;;8.57;;
41885;SDS011;27567;43.084;25.616;2022-11-20T14:59:09;16.90;;;8.07;;
41885;SDS011;27567;43.084;25.616;2022-11-20T15:01:57;21.75;;;8.18;;
41885;SDS011;27567;43.084;25.616;2022-11-20T15:04:47;21.50;;;9.32;;
41885;SDS011;27567;43.084;25.616;2022-11-20T15:07:34;33.25;;;10.23;;
41885;SDS011;27567;43.084;25.616;2022-11-20T15:10:24;22.90;;;8.35;;
41885;SDS011;27567;43.084;25.616;2022-11-20T15:13:13;20.55;;;10.35;;
41885;SDS011;27567;43.084;25.616;2022-11-20T15:16:01;18.42;;;10.05;;
41885;SDS011;27567;43.084;25.616;2022-11-20T15:18:47;25.38;;;11.10;;
41885;SDS011;27567;43.084;25.616;2022-11-20T15:21:31;26.77;;;11.90;;
41885;SDS011;27567;43.084;25.616;2022-11-20T15:24:15;36.92;;;15.38;;
41885;SDS011;27567;43.084;25.616;2022-11-20T15:27:00;37.78;;;15.40;;
41885;SDS011;27567;43.084;25.616;2022-11-20T15:29:44;29.80;;;14.18;;
41885;SDS011;27567;43.084;25.616;2022-11-20T15:32:29;28.42;;;14.00;;
41885;SDS011;27567;43.084;25.616;2022-11-20T15:35:15;26.65;;;13.02;;
41885;SDS011;27567;43.084;25.616;2022-11-20T15:38:00;36.65;;;16.63;;
41885;SDS011;27567;43.084;25.616;2022-11-20T15:40:44;35.53;;;17.60;;
41885;SDS011;27567;43.084;25.616;2022-11-20T15:43:28;38.92;;;19.65;;
41885;SDS011;27567;43.084;25.616;2022-11-20T15:46:13;40.60;;;20.85;;
41885;SDS011;27567;43.084;25.616;2022-11-20T15:48:59;37.83;;;19.33;;
41885;SDS011;27567;43.084;25.616;2022-11-20T15:51:48;31.02;;;16.50;;
41885;SDS011;27567;43.084;25.616;2022-11-20T15:54:33;153.38;;;30.40;;
41885;SDS011;27567;43.084;25.616;2022-11-20T15:57:17;33.50;;;19.02;;
41885;SDS011;27567;43.084;25.616;2022-11-20T16:00:02;43.00;;;22.10;;
41885;SDS011;27567;43.084;25.616;2022-11-20T16:02:46;39.55;;;18.15;;
41885;SDS011;27567;43.084;25.616;2022-11-20T16:05:30;61.22;;;23.98;;
41885;SDS011;27567;43.084;25.616;2022-11-20T16:08:15;48.85;;;21.30;;
41885;SDS011;27567;43.084;25.616;2022-11-20T16:10:59;46.63;;;21.85;;
41885;SDS011;27567;43.084;25.616;2022-11-20T16:13:44;40.13;;;20.20;;
41885;SDS011;27567;43.084;25.616;2022-11-20T16:16:47;39.10;;;18.38;;
41885;SDS011;27567;43.084;25.616;2022-11-20T16:19:31;44.05;;;19.83;;
41885;SDS011;27567;43.084;25.616;2022-11-20T16:22:15;38.08;;;19.27;;
41885;SDS011;27567;43.084;25.616;2022-11-20T16:24:59;55.60;;;28.63;;
41885;SDS011;27567;43.084;25.616;2022-11-20T16:27:43;39.40;;;19.42;;
41885;SDS011;27567;43.084;25.616;2022-11-20T16:30:27;45.30;;;22.42;;
41885;SDS011;27567;43.084;25.616;2022-11-20T16:33:16;47.67;;;24.00;;
41885;SDS011;27567;43.084;25.616;2022-11-20T16:36:08;43.42;;;20.58;;
41885;SDS011;27567;43.084;25.616;2022-11-20T16:38:56;41.25;;;20.73;;
41885;SDS011;27567;43.084;25.616;2022-11-20T16:41:42;57.53;;;28.05;;
41885;SDS011;27567;43.084;25.616;2022-11-20T16:44:26;50.00;;;25.58;;
41885;SDS011;27567;43.084;25.616;2022-11-20T16:47:10;46.65;;;25.10;;
41885;SDS011;27567;43.084;25.616;2022-11-20T16:49:54;43.53;;;24.05;;
41885;SDS011;27567;43.084;25.616;2022-11-20T16:52:38;50.47;;;27.70;;
41885;SDS011;27567;43.084;25.616;2022-11-20T16:55:23;56.33;;;30.45;;
41885;SDS011;27567;43.084;25.616;2022-11-20T16:58:15;54.45;;;29.90;;
41885;SDS011;27567;43.084;25.616;2022-11-20T17:01:06;40.15;;;22.63;;
41885;SDS011;27567;43.084;25.616;2022-11-20T17:04:01;35.70;;;19.67;;
41885;SDS011;27567;43.084;25.616;2022-11-20T17:06:55;29.83;;;16.27;;
41885;SDS011;27567;43.084;25.616;2022-11-20T17:09:39;34.10;;;18.08;;
41885;SDS011;27567;43.084;25.616;2022-11-20T17:12:23;29.85;;;17.48;;
41885;SDS011;27567;43.084;25.616;2022-11-20T17:15:07;29.48;;;17.60;;
41885;SDS011;27567;43.084;25.616;2022-11-20T17:18:01;34.10;;;17.63;;
41885;SDS011;27567;43.084;25.616;2022-11-20T17:20:50;30.90;;;17.80;;
41885;SDS011;27567;43.084;25.616;2022-11-20T17:23:36;35.83;;;19.60;;
41885;SDS011;27567;43.084;25.616;2022-11-20T17:26:22;32.58;;;18.85;;
41885;SDS011;27567;43.084;25.616;2022-11-20T17:29:15;33.05;;;18.83;;
41885;SDS011;27567;43.084;25.616;2022-11-20T17:32:01;27.92;;;17.50;;
41885;SDS011;27567;43.084;25.616;2022-11-20T17:34:45;31.27;;;16.17;;
41885;SDS011;27567;43.084;25.616;2022-11-20T17:37:30;30.15;;;16.42;;
41885;SDS011;27567;43.084;25.616;2022-11-20T17:40:17;25.92;;;14.10;;
41885;SDS011;27567;43.084;25.616;2022-11-20T17:43:04;28.63;;;13.98;;
41885;SDS011;27567;43.084;25.616;2022-11-20T17:45:48;19.02;;;12.50;;
41885;SDS011;27567;43.084;25.616;2022-11-20T17:48:34;20.92;;;12.25;;